sensor_id;sensor_type;location;lat;lon;timestamp;P1;durP1;ratioP1;P2;durP2;ratioP2
4597;SDS011;62772;48.646;8.906;2023-02-12T00:03:32;61.57;;;33.23;;
4597;SDS011;62772;48.646;8.906;2023-02-12T00:08:32;59.00;;;29.93;;
4597;SDS011;62772;48.646;8.906;2023-02-12T00:13:33;76.17;;;35.53;;
4597;SDS011;62772;48.646;8.906;2023-02-12T00:18:33;70.63;;;33.43;;
4597;SDS011;62772;48.646;8.906;2023-02-12T00:23:34;63.10;;;33.70;;
4597;SDS011;62772;48.646;8.906;2023-02-12T00:28:36;64.47;;;31.80;;
4597;SDS011;62772;48.646;8.906;2023-02-12T00:33:36;59.50;;;31.03;;
4597;SDS011;62772;48.646;8.906;2023-02-12T00:38:37;68.43;;;31.77;;
4597;SDS011;62772;48.646;8.906;2023-02-12T00:43:37;56.47;;;30.10;;
4597;SDS011;62772;48.646;8.906;2023-02-12T00:48:38;60.10;;;30.47;;
4597;SDS011;62772;48.646;8.906;2023-02-12T00:53:39;60.50;;;31.93;;
4597;SDS011;62772;48.646;8.906;2023-02-12T00:58:40;69.33;;;31.83;;
4597;SDS011;62772;48.646;8.906;2023-02-12T01:03:41;59.00;;;30.50;;
4597;SDS011;62772;48.646;8.906;2023-02-12T01:08:41;59.77;;;31.30;;
4597;SDS011;62772;48.646;8.906;2023-02-12T01:13:42;63.77;;;32.47;;
4597;SDS011;62772;48.646;8.906;2023-02-12T01:18:42;61.40;;;30.13;;
4597;SDS011;62772;48.646;8.906;2023-02-12T01:23:43;62.80;;;31.37;;
4597;SDS011;62772;48.646;8.906;2023-02-12T01:28:47;66.63;;;31.90;;
4597;SDS011;62772;48.646;8.906;2023-02-12T01:33:51;58.63;;;31.00;;
4597;SDS011;62772;48.646;8.906;2023-02-12T01:38:53;61.23;;;31.67;;
4597;SDS011;62772;48.646;8.906;2023-02-12T01:49:15;63.57;;;31.93;;
4597;SDS011;62772;48.646;8.906;2023-02-12T01:54:20;66.30;;;32.87;;
4597;SDS011;62772;48.646;8.906;2023-02-12T01:59:25;62.37;;;31.80;;
4597;SDS011;62772;48.646;8.906;2023-02-12T02:04:28;67.30;;;33.43;;
4597;SDS011;62772;48.646;8.906;2023-02-12T02:09:33;53.37;;;29.80;;
4597;SDS011;62772;48.646;8.906;2023-02-12T02:14:35;57.47;;;31.53;;
4597;SDS011;62772;48.646;8.906;2023-02-12T02:35:52;57.80;;;30.50;;
4597;SDS011;62772;48.646;8.906;2023-02-12T02:41:04;49.97;;;27.77;;
4597;SDS011;62772;48.646;8.906;2023-02-12T02:46:10;54.93;;;28.50;;
4597;SDS011;62772;48.646;8.906;2023-02-12T02:51:15;51.70;;;28.87;;
4597;SDS011;62772;48.646;8.906;2023-02-12T02:56:21;50.30;;;28.30;;
4597;SDS011;62772;48.646;8.906;2023-02-12T03:01:25;55.20;;;27.40;;
4597;SDS011;62772;48.646;8.906;2023-02-12T03:06:42;59.33;;;29.57;;
4597;SDS011;62772;48.646;8.906;2023-02-12T03:11:46;56.03;;;29.83;;
4597;SDS011;62772;48.646;8.906;2023-02-12T03:17:01;49.73;;;27.20;;
4597;SDS011;62772;48.646;8.906;2023-02-12T03:22:10;48.93;;;26.93;;
4597;SDS011;62772;48.646;8.906;2023-02-12T03:37:58;54.50;;;29.47;;
4597;SDS011;62772;48.646;8.906;2023-02-12T03:48:42;52.17;;;26.57;;
4597;SDS011;62772;48.646;8.906;2023-02-12T03:53:49;51.03;;;25.97;;
4597;SDS011;62772;48.646;8.906;2023-02-12T03:58:49;51.50;;;26.07;;
4597;SDS011;62772;48.646;8.906;2023-02-12T04:03:50;48.87;;;25.97;;
4597;SDS011;62772;48.646;8.906;2023-02-12T04:08:51;63.33;;;32.00;;
4597;SDS011;62772;48.646;8.906;2023-02-12T04:19:02;60.17;;;31.70;;
4597;SDS011;62772;48.646;8.906;2023-02-12T04:34:14;63.90;;;30.77;;
4597;SDS011;62772;48.646;8.906;2023-02-12T04:39:20;65.17;;;31.10;;
4597;SDS011;62772;48.646;8.906;2023-02-12T04:44:25;71.93;;;33.90;;
4597;SDS011;62772;48.646;8.906;2023-02-12T04:49:27;70.40;;;33.63;;
4597;SDS011;62772;48.646;8.906;2023-02-12T04:54:28;67.90;;;34.53;;
4597;SDS011;62772;48.646;8.906;2023-02-12T04:59:28;69.20;;;32.10;;
4597;SDS011;62772;48.646;8.906;2023-02-12T05:04:29;73.03;;;33.70;;
4597;SDS011;62772;48.646;8.906;2023-02-12T05:09:29;58.80;;;30.90;;
4597;SDS011;62772;48.646;8.906;2023-02-12T05:14:29;60.60;;;32.07;;
4597;SDS011;62772;48.646;8.906;2023-02-12T05:19:30;59.90;;;29.87;;
4597;SDS011;62772;48.646;8.906;2023-02-12T05:24:31;60.70;;;30.73;;
4597;SDS011;62772;48.646;8.906;2023-02-12T05:29:31;60.07;;;29.87;;
4597;SDS011;62772;48.646;8.906;2023-02-12T05:34:32;57.97;;;29.03;;
4597;SDS011;62772;48.646;8.906;2023-02-12T05:39:32;58.37;;;31.50;;
4597;SDS011;62772;48.646;8.906;2023-02-12T05:44:33;64.60;;;31.97;;
4597;SDS011;62772;48.646;8.906;2023-02-12T05:49:33;60.83;;;32.40;;
4597;SDS011;62772;48.646;8.906;2023-02-12T05:54:34;59.83;;;30.80;;
4597;SDS011;62772;48.646;8.906;2023-02-12T05:59:34;57.20;;;30.00;;
4597;SDS011;62772;48.646;8.906;2023-02-12T06:04:34;57.50;;;31.10;;
4597;SDS011;62772;48.646;8.906;2023-02-12T06:09:35;59.00;;;31.23;;
4597;SDS011;62772;48.646;8.906;2023-02-12T06:14:36;58.73;;;31.80;;
4597;SDS011;62772;48.646;8.906;2023-02-12T06:19:36;58.73;;;32.80;;
4597;SDS011;62772;48.646;8.906;2023-02-12T06:24:37;58.30;;;31.63;;
4597;SDS011;62772;48.646;8.906;2023-02-12T06:29:37;55.00;;;28.80;;
4597;SDS011;62772;48.646;8.906;2023-02-12T06:34:38;72.37;;;30.63;;
4597;SDS011;62772;48.646;8.906;2023-02-12T06:39:39;67.83;;;30.37;;
4597;SDS011;62772;48.646;8.906;2023-02-12T06:44:39;62.03;;;29.50;;
4597;SDS011;62772;48.646;8.906;2023-02-12T06:49:40;66.17;;;30.50;;
4597;SDS011;62772;48.646;8.906;2023-02-12T06:54:40;63.87;;;30.57;;
4597;SDS011;62772;48.646;8.906;2023-02-12T06:59:40;69.60;;;34.10;;
4597;SDS011;62772;48.646;8.906;2023-02-12T07:04:41;66.93;;;34.67;;
4597;SDS011;62772;48.646;8.906;2023-02-12T07:09:41;73.00;;;36.90;;
4597;SDS011;62772;48.646;8.906;2023-02-12T07:14:42;65.47;;;35.20;;
4597;SDS011;62772;48.646;8.906;2023-02-12T07:19:42;70.00;;;37.90;;
4597;SDS011;62772;48.646;8.906;2023-02-12T07:24:42;68.60;;;35.63;;
4597;SDS011;62772;48.646;8.906;2023-02-12T07:29:44;77.57;;;39.00;;
4597;SDS011;62772;48.646;8.906;2023-02-12T07:34:45;83.33;;;41.03;;
4597;SDS011;62772;48.646;8.906;2023-02-12T07:39:46;79.23;;;38.87;;
4597;SDS011;62772;48.646;8.906;2023-02-12T07:44:47;86.57;;;41.20;;
4597;SDS011;62772;48.646;8.906;2023-02-12T07:49:47;88.03;;;39.07;;
4597;SDS011;62772;48.646;8.906;2023-02-12T07:54:48;92.53;;;43.53;;
4597;SDS011;62772;48.646;8.906;2023-02-12T07:59:48;91.00;;;42.43;;
4597;SDS011;62772;48.646;8.906;2023-02-12T08:04:48;88.23;;;39.60;;
4597;SDS011;62772;48.646;8.906;2023-02-12T08:09:49;89.03;;;40.43;;
4597;SDS011;62772;48.646;8.906;2023-02-12T08:14:50;80.50;;;34.50;;
4597;SDS011;62772;48.646;8.906;2023-02-12T08:19:50;75.93;;;30.70;;
4597;SDS011;62772;48.646;8.906;2023-02-12T08:24:51;71.07;;;30.70;;
4597;SDS011;62772;48.646;8.906;2023-02-12T08:29:51;64.50;;;28.90;;
4597;SDS011;62772;48.646;8.906;2023-02-12T08:34:52;74.27;;;31.03;;
4597;SDS011;62772;48.646;8.906;2023-02-12T08:39:52;74.40;;;32.40;;
4597;SDS011;62772;48.646;8.906;2023-02-12T08:44:53;77.43;;;34.20;;
4597;SDS011;62772;48.646;8.906;2023-02-12T08:49:53;83.63;;;37.03;;
4597;SDS011;62772;48.646;8.906;2023-02-12T08:54:53;82.57;;;38.20;;
4597;SDS011;62772;48.646;8.906;2023-02-12T08:59:54;99.00;;;40.20;;
4597;SDS011;62772;48.646;8.906;2023-02-12T09:04:54;89.00;;;40.10;;
4597;SDS011;62772;48.646;8.906;2023-02-12T09:09:55;96.43;;;45.40;;
4597;SDS011;62772;48.646;8.906;2023-02-12T09:14:55;101.90;;;44.10;;
4597;SDS011;62772;48.646;8.906;2023-02-12T09:19:55;87.30;;;40.30;;
4597;SDS011;62772;48.646;8.906;2023-02-12T09:24:56;103.50;;;43.40;;
4597;SDS011;62772;48.646;8.906;2023-02-12T09:29:57;93.47;;;41.87;;
4597;SDS011;62772;48.646;8.906;2023-02-12T09:34:57;82.57;;;41.40;;
4597;SDS011;62772;48.646;8.906;2023-02-12T09:39:58;76.87;;;36.17;;
4597;SDS011;62772;48.646;8.906;2023-02-12T09:54:59;60.13;;;33.37;;
4597;SDS011;62772;48.646;8.906;2023-02-12T10:00:07;61.20;;;29.60;;
4597;SDS011;62772;48.646;8.906;2023-02-12T10:05:50;64.10;;;31.53;;
4597;SDS011;62772;48.646;8.906;2023-02-12T10:11:12;46.13;;;25.17;;
4597;SDS011;62772;48.646;8.906;2023-02-12T10:16:20;34.03;;;16.67;;
4597;SDS011;62772;48.646;8.906;2023-02-12T10:26:48;35.47;;;19.13;;
4597;SDS011;62772;48.646;8.906;2023-02-12T10:31:54;37.83;;;19.50;;
4597;SDS011;62772;48.646;8.906;2023-02-12T10:42:38;29.77;;;16.10;;
4597;SDS011;62772;48.646;8.906;2023-02-12T10:47:43;30.67;;;16.90;;
4597;SDS011;62772;48.646;8.906;2023-02-12T10:52:46;29.53;;;16.90;;
4597;SDS011;62772;48.646;8.906;2023-02-12T10:57:54;27.37;;;17.33;;
4597;SDS011;62772;48.646;8.906;2023-02-12T11:08:28;22.50;;;14.13;;
4597;SDS011;62772;48.646;8.906;2023-02-12T11:13:32;92.43;;;42.50;;
4597;SDS011;62772;48.646;8.906;2023-02-12T11:18:34;26.47;;;15.87;;
4597;SDS011;62772;48.646;8.906;2023-02-12T11:23:42;51.80;;;31.40;;
4597;SDS011;62772;48.646;8.906;2023-02-12T11:29:15;22.20;;;12.83;;
4597;SDS011;62772;48.646;8.906;2023-02-12T11:34:18;21.00;;;13.60;;
4597;SDS011;62772;48.646;8.906;2023-02-12T11:39:20;24.33;;;15.27;;
4597;SDS011;62772;48.646;8.906;2023-02-12T11:44:26;29.30;;;16.80;;
4597;SDS011;62772;48.646;8.906;2023-02-12T11:49:30;24.00;;;13.13;;
4597;SDS011;62772;48.646;8.906;2023-02-12T11:54:35;23.20;;;14.00;;
4597;SDS011;62772;48.646;8.906;2023-02-12T11:59:42;17.47;;;11.20;;
4597;SDS011;62772;48.646;8.906;2023-02-12T12:04:45;19.17;;;11.60;;
4597;SDS011;62772;48.646;8.906;2023-02-12T12:09:52;16.97;;;10.60;;
4597;SDS011;62772;48.646;8.906;2023-02-12T12:15:02;17.90;;;10.97;;
4597;SDS011;62772;48.646;8.906;2023-02-12T12:20:51;17.60;;;10.97;;
4597;SDS011;62772;48.646;8.906;2023-02-12T12:25:57;17.80;;;11.03;;
4597;SDS011;62772;48.646;8.906;2023-02-12T12:32:05;20.47;;;12.00;;
4597;SDS011;62772;48.646;8.906;2023-02-12T12:41:54;21.67;;;12.93;;
4597;SDS011;62772;48.646;8.906;2023-02-12T12:47:10;20.93;;;12.57;;
4597;SDS011;62772;48.646;8.906;2023-02-12T13:08:26;18.60;;;12.27;;
4597;SDS011;62772;48.646;8.906;2023-02-12T13:13:37;17.30;;;11.40;;
4597;SDS011;62772;48.646;8.906;2023-02-12T13:18:44;18.03;;;12.20;;
4597;SDS011;62772;48.646;8.906;2023-02-12T13:29:15;17.00;;;10.50;;
4597;SDS011;62772;48.646;8.906;2023-02-12T13:34:20;14.97;;;10.20;;
4597;SDS011;62772;48.646;8.906;2023-02-12T13:39:35;17.70;;;10.47;;
4597;SDS011;62772;48.646;8.906;2023-02-12T13:49:58;18.00;;;11.50;;
4597;SDS011;62772;48.646;8.906;2023-02-12T13:55:22;19.00;;;12.03;;
4597;SDS011;62772;48.646;8.906;2023-02-12T14:06:09;13.97;;;9.20;;
4597;SDS011;62772;48.646;8.906;2023-02-12T14:11:14;14.67;;;9.33;;
4597;SDS011;62772;48.646;8.906;2023-02-12T14:16:38;14.90;;;9.03;;
4597;SDS011;62772;48.646;8.906;2023-02-12T14:21:39;14.17;;;9.40;;
4597;SDS011;62772;48.646;8.906;2023-02-12T14:26:40;13.07;;;8.37;;
4597;SDS011;62772;48.646;8.906;2023-02-12T14:31:40;14.17;;;9.13;;
4597;SDS011;62772;48.646;8.906;2023-02-12T14:36:42;16.40;;;8.67;;
4597;SDS011;62772;48.646;8.906;2023-02-12T14:41:48;16.63;;;8.67;;
4597;SDS011;62772;48.646;8.906;2023-02-12T14:46:55;12.70;;;8.00;;
4597;SDS011;62772;48.646;8.906;2023-02-12T14:51:57;11.50;;;7.70;;
4597;SDS011;62772;48.646;8.906;2023-02-12T14:57:05;10.60;;;7.00;;
4597;SDS011;62772;48.646;8.906;2023-02-12T15:02:12;9.93;;;6.43;;
4597;SDS011;62772;48.646;8.906;2023-02-12T15:07:27;9.97;;;6.87;;
4597;SDS011;62772;48.646;8.906;2023-02-12T15:18:28;14.80;;;8.30;;
4597;SDS011;62772;48.646;8.906;2023-02-12T15:23:42;11.60;;;7.17;;
4597;SDS011;62772;48.646;8.906;2023-02-12T15:28:47;14.77;;;7.77;;
4597;SDS011;62772;48.646;8.906;2023-02-12T15:33:51;13.00;;;7.50;;
4597;SDS011;62772;48.646;8.906;2023-02-12T15:38:55;8.80;;;5.60;;
4597;SDS011;62772;48.646;8.906;2023-02-12T15:44:01;8.53;;;5.60;;
4597;SDS011;62772;48.646;8.906;2023-02-12T15:49:16;9.23;;;5.90;;
4597;SDS011;62772;48.646;8.906;2023-02-12T15:54:17;10.63;;;5.80;;
4597;SDS011;62772;48.646;8.906;2023-02-12T15:59:20;8.37;;;5.13;;
4597;SDS011;62772;48.646;8.906;2023-02-12T16:04:23;7.83;;;5.70;;
4597;SDS011;62772;48.646;8.906;2023-02-12T16:09:32;20.73;;;10.27;;
4597;SDS011;62772;48.646;8.906;2023-02-12T16:15:21;19.47;;;8.97;;
4597;SDS011;62772;48.646;8.906;2023-02-12T16:25:18;9.50;;;6.27;;
4597;SDS011;62772;48.646;8.906;2023-02-12T16:30:38;12.73;;;6.37;;
4597;SDS011;62772;48.646;8.906;2023-02-12T16:35:42;9.77;;;6.20;;
4597;SDS011;62772;48.646;8.906;2023-02-12T16:40:42;9.27;;;6.03;;
4597;SDS011;62772;48.646;8.906;2023-02-12T16:46:23;8.77;;;6.13;;
4597;SDS011;62772;48.646;8.906;2023-02-12T16:51:24;10.93;;;6.93;;
4597;SDS011;62772;48.646;8.906;2023-02-12T16:56:26;10.10;;;6.53;;
4597;SDS011;62772;48.646;8.906;2023-02-12T17:06:29;11.33;;;6.63;;
4597;SDS011;62772;48.646;8.906;2023-02-12T17:11:30;9.00;;;5.90;;
4597;SDS011;62772;48.646;8.906;2023-02-12T17:16:31;10.10;;;7.10;;
4597;SDS011;62772;48.646;8.906;2023-02-12T17:21:32;10.53;;;6.60;;
4597;SDS011;62772;48.646;8.906;2023-02-12T17:26:37;11.90;;;7.43;;
4597;SDS011;62772;48.646;8.906;2023-02-12T17:31:37;12.70;;;8.20;;
4597;SDS011;62772;48.646;8.906;2023-02-12T17:36:38;16.63;;;10.30;;
4597;SDS011;62772;48.646;8.906;2023-02-12T17:41:39;16.50;;;10.10;;
4597;SDS011;62772;48.646;8.906;2023-02-12T17:46:39;15.87;;;9.50;;
4597;SDS011;62772;48.646;8.906;2023-02-12T17:51:41;13.23;;;8.43;;
4597;SDS011;62772;48.646;8.906;2023-02-12T17:56:41;20.30;;;10.43;;
4597;SDS011;62772;48.646;8.906;2023-02-12T18:01:42;18.27;;;10.03;;
4597;SDS011;62772;48.646;8.906;2023-02-12T18:06:42;18.27;;;10.23;;
4597;SDS011;62772;48.646;8.906;2023-02-12T18:11:43;20.43;;;11.80;;
4597;SDS011;62772;48.646;8.906;2023-02-12T18:16:43;25.03;;;13.90;;
4597;SDS011;62772;48.646;8.906;2023-02-12T18:21:44;24.00;;;14.63;;
4597;SDS011;62772;48.646;8.906;2023-02-12T18:26:44;22.17;;;13.37;;
4597;SDS011;62772;48.646;8.906;2023-02-12T18:31:45;21.63;;;12.63;;
4597;SDS011;62772;48.646;8.906;2023-02-12T18:36:45;24.63;;;12.50;;
4597;SDS011;62772;48.646;8.906;2023-02-12T18:41:46;21.63;;;11.67;;
4597;SDS011;62772;48.646;8.906;2023-02-12T18:46:47;17.30;;;10.00;;
4597;SDS011;62772;48.646;8.906;2023-02-12T18:51:47;18.53;;;10.37;;
4597;SDS011;62772;48.646;8.906;2023-02-12T18:56:49;20.10;;;11.63;;
4597;SDS011;62772;48.646;8.906;2023-02-12T19:01:51;26.17;;;14.13;;
4597;SDS011;62772;48.646;8.906;2023-02-12T19:06:51;31.10;;;14.93;;
4597;SDS011;62772;48.646;8.906;2023-02-12T19:11:54;26.60;;;13.40;;
4597;SDS011;62772;48.646;8.906;2023-02-12T19:16:55;28.30;;;14.83;;
4597;SDS011;62772;48.646;8.906;2023-02-12T19:21:56;25.20;;;13.00;;
4597;SDS011;62772;48.646;8.906;2023-02-12T19:26:56;26.97;;;14.50;;
4597;SDS011;62772;48.646;8.906;2023-02-12T19:31:56;22.37;;;11.60;;
4597;SDS011;62772;48.646;8.906;2023-02-12T19:36:57;23.70;;;11.90;;
4597;SDS011;62772;48.646;8.906;2023-02-12T19:41:57;22.20;;;12.03;;
4597;SDS011;62772;48.646;8.906;2023-02-12T19:46:58;26.13;;;13.50;;
4597;SDS011;62772;48.646;8.906;2023-02-12T19:51:58;24.30;;;14.00;;
4597;SDS011;62772;48.646;8.906;2023-02-12T19:56:59;20.50;;;10.97;;
4597;SDS011;62772;48.646;8.906;2023-02-12T20:01:59;14.27;;;8.50;;
4597;SDS011;62772;48.646;8.906;2023-02-12T20:07:01;16.70;;;10.47;;
4597;SDS011;62772;48.646;8.906;2023-02-12T20:12:02;19.23;;;10.20;;
4597;SDS011;62772;48.646;8.906;2023-02-12T20:17:02;19.93;;;12.27;;
4597;SDS011;62772;48.646;8.906;2023-02-12T20:22:03;19.53;;;11.07;;
4597;SDS011;62772;48.646;8.906;2023-02-12T20:27:03;15.80;;;9.37;;
4597;SDS011;62772;48.646;8.906;2023-02-12T20:32:04;17.40;;;10.33;;
4597;SDS011;62772;48.646;8.906;2023-02-12T20:37:04;24.53;;;11.30;;
4597;SDS011;62772;48.646;8.906;2023-02-12T20:42:05;21.53;;;11.90;;
4597;SDS011;62772;48.646;8.906;2023-02-12T20:47:05;18.83;;;10.87;;
4597;SDS011;62772;48.646;8.906;2023-02-12T20:52:06;16.57;;;9.50;;
4597;SDS011;62772;48.646;8.906;2023-02-12T20:57:06;16.33;;;8.97;;
4597;SDS011;62772;48.646;8.906;2023-02-12T21:02:07;17.40;;;9.53;;
4597;SDS011;62772;48.646;8.906;2023-02-12T21:07:09;21.63;;;11.50;;
4597;SDS011;62772;48.646;8.906;2023-02-12T21:12:09;24.10;;;12.13;;
4597;SDS011;62772;48.646;8.906;2023-02-12T21:17:09;19.07;;;11.47;;
4597;SDS011;62772;48.646;8.906;2023-02-12T21:22:10;17.60;;;9.73;;
4597;SDS011;62772;48.646;8.906;2023-02-12T21:27:10;15.57;;;8.20;;
4597;SDS011;62772;48.646;8.906;2023-02-12T21:32:11;14.90;;;8.80;;
4597;SDS011;62772;48.646;8.906;2023-02-12T21:37:11;15.50;;;8.53;;
4597;SDS011;62772;48.646;8.906;2023-02-12T21:42:11;15.40;;;8.80;;
4597;SDS011;62772;48.646;8.906;2023-02-12T21:47:12;16.63;;;8.50;;
4597;SDS011;62772;48.646;8.906;2023-02-12T21:52:12;13.00;;;8.27;;
4597;SDS011;62772;48.646;8.906;2023-02-12T21:57:13;16.90;;;8.60;;
4597;SDS011;62772;48.646;8.906;2023-02-12T22:02:18;19.63;;;9.93;;
4597;SDS011;62772;48.646;8.906;2023-02-12T22:07:21;16.00;;;8.77;;
4597;SDS011;62772;48.646;8.906;2023-02-12T22:12:21;17.93;;;9.47;;
4597;SDS011;62772;48.646;8.906;2023-02-12T22:17:22;17.30;;;9.10;;
4597;SDS011;62772;48.646;8.906;2023-02-12T22:22:22;16.13;;;9.07;;
4597;SDS011;62772;48.646;8.906;2023-02-12T22:27:23;15.43;;;7.70;;
4597;SDS011;62772;48.646;8.906;2023-02-12T22:32:24;13.00;;;7.23;;
4597;SDS011;62772;48.646;8.906;2023-02-12T22:37:24;14.57;;;8.30;;
4597;SDS011;62772;48.646;8.906;2023-02-12T22:42:25;15.77;;;8.50;;
4597;SDS011;62772;48.646;8.906;2023-02-12T22:47:25;14.47;;;7.43;;
4597;SDS011;62772;48.646;8.906;2023-02-12T22:52:30;11.90;;;7.80;;
4597;SDS011;62772;48.646;8.906;2023-02-12T22:57:31;15.90;;;7.93;;
4597;SDS011;62772;48.646;8.906;2023-02-12T23:02:32;14.97;;;7.50;;
4597;SDS011;62772;48.646;8.906;2023-02-12T23:07:33;11.87;;;7.10;;
4597;SDS011;62772;48.646;8.906;2023-02-12T23:12:33;13.47;;;7.93;;
4597;SDS011;62772;48.646;8.906;2023-02-12T23:17:33;15.00;;;8.60;;
4597;SDS011;62772;48.646;8.906;2023-02-12T23:22:34;14.80;;;8.50;;
4597;SDS011;62772;48.646;8.906;2023-02-12T23:27:34;22.00;;;8.80;;
4597;SDS011;62772;48.646;8.906;2023-02-12T23:32:35;14.23;;;8.10;;
4597;SDS011;62772;48.646;8.906;2023-02-12T23:37:35;17.17;;;8.60;;
4597;SDS011;62772;48.646;8.906;2023-02-12T23:42:36;21.40;;;10.17;;
4597;SDS011;62772;48.646;8.906;2023-02-12T23:47:36;25.43;;;10.50;;
4597;SDS011;62772;48.646;8.906;2023-02-12T23:52:36;20.67;;;10.10;;
4597;SDS011;62772;48.646;8.906;2023-02-12T23:57:37;21.87;;;10.63;;
